createdAt,value
2018-10-07T00:00:02.632Z,95131.31
2018-10-07T00:02:37.609Z,95129.48
2018-10-07T00:05:12.510Z,95127.38
2018-10-07T00:07:46.991Z,95129.20
2018-10-07T00:10:22.190Z,95127.31
2018-10-07T00:12:56.681Z,95134.09
2018-10-07T00:15:31.028Z,95136.94
2018-10-07T00:18:05.800Z,95137.29
2018-10-07T00:20:40.692Z,95137.91
2018-10-07T00:23:15.475Z,95134.81
2018-10-07T00:25:50.363Z,95123.91
2018-10-07T00:28:25.099Z,95120.26
2018-10-07T00:31:00.400Z,95117.41
2018-10-07T00:33:34.848Z,95118.50
2018-10-07T00:36:09.339Z,95120.89
2018-10-07T00:38:43.812Z,95120.15
2018-10-07T00:41:18.177Z,95118.78
2018-10-07T00:43:52.681Z,95116.90
2018-10-07T00:46:27.368Z,95116.73
2018-10-07T00:49:01.876Z,95118.44
2018-10-07T00:51:36.615Z,95118.09
2018-10-07T00:54:11.250Z,95115.09
2018-10-07T00:56:46.852Z,95118.96
2018-10-07T00:59:21.689Z,95121.07
2018-10-07T01:01:56.479Z,95124.77
2018-10-07T01:04:31.916Z,95121.87
2018-10-07T01:07:06.540Z,95120.21
2018-10-07T01:09:40.973Z,95116.22
2018-10-07T01:12:16.259Z,95118.10
2018-10-07T01:14:50.811Z,95117.02
2018-10-07T01:17:25.616Z,95112.00
2018-10-07T01:20:00.471Z,95110.41
2018-10-07T01:22:35.447Z,95109.32
2018-10-07T01:25:09.853Z,95114.92
2018-10-07T01:27:44.360Z,95119.52
2018-10-07T01:30:22.316Z,95119.30
2018-10-07T01:32:57.239Z,95116.68
2018-10-07T01:35:32.051Z,95124.98
2018-10-07T01:38:06.603Z,95118.44
2018-10-07T01:40:41.195Z,95119.02
2018-10-07T01:43:15.555Z,95117.13
2018-10-07T01:45:50.255Z,95120.70
2018-10-07T01:48:24.937Z,95118.16
2018-10-07T01:51:00.228Z,95122.59
2018-10-07T01:53:34.692Z,95120.42
2018-10-07T01:56:09.250Z,95126.33
2018-10-07T01:58:44.391Z,95125.22
2018-10-07T02:01:18.743Z,95123.62
2018-10-07T02:03:53.815Z,95125.09
2018-10-07T02:06:28.508Z,95116.72
2018-10-07T02:09:03.105Z,95127.70
2018-10-07T02:11:38.063Z,95127.67
2018-10-07T02:14:13.344Z,95125.22
2018-10-07T02:16:48.139Z,95128.50
2018-10-07T02:19:22.456Z,95127.77
2018-10-07T02:21:57.141Z,95123.27
2018-10-07T02:24:31.911Z,95128.50
2018-10-07T02:27:06.467Z,95126.04
2018-10-07T02:29:41.195Z,95124.73
2018-10-07T02:32:16.148Z,95124.66
2018-10-07T02:34:51.039Z,95131.37
2018-10-07T02:37:25.505Z,95135.20
2018-10-07T02:40:00.127Z,95130.98
2018-10-07T02:42:34.735Z,95134.47
2018-10-07T02:45:09.596Z,95139.22
2018-10-07T02:47:45.348Z,95138.05
2018-10-07T02:50:21.823Z,95144.59
2018-10-07T02:52:57.056Z,95145.03
2018-10-07T02:55:32.572Z,95139.34
2018-10-07T02:58:07.232Z,95143.49
2018-10-07T03:00:42.301Z,95143.49
2018-10-07T03:03:17.511Z,95138.77
2018-10-07T03:05:52.314Z,95143.36
2018-10-07T03:08:27.055Z,95140.73
2018-10-07T03:11:01.439Z,95142.62
2018-10-07T03:13:35.960Z,95144.73
2018-10-07T03:16:10.663Z,95144.00
2018-10-07T03:18:45.371Z,95144.59
2018-10-07T03:21:19.828Z,95143.58
2018-10-07T03:23:54.700Z,95142.39
2018-10-07T03:26:29.727Z,95139.36
2018-10-07T03:29:04.800Z,95141.59
2018-10-07T03:31:39.266Z,95143.34
2018-10-07T03:34:14.381Z,95140.88
2018-10-07T03:36:48.959Z,95144.36
2018-10-07T03:39:23.458Z,95146.40
2018-10-07T03:41:57.928Z,95150.03
2018-10-07T03:44:32.208Z,95141.89
2018-10-07T03:47:07.241Z,95143.85
2018-10-07T03:49:41.980Z,95139.34
2018-10-07T03:52:16.669Z,95140.44
2018-10-07T03:54:51.459Z,95144.30
2018-10-07T03:57:26.068Z,95145.91
2018-10-07T04:00:00.860Z,95151.92
2018-10-07T04:02:35.572Z,95152.27
2018-10-07T04:05:10.412Z,95158.92
2018-10-07T04:07:45.473Z,95159.44
2018-10-07T04:10:20.536Z,95157.03
2018-10-07T04:12:55.036Z,95162.48
2018-10-07T04:15:29.628Z,95159.66
2018-10-07T04:18:04.103Z,95157.83
2018-10-07T04:20:38.976Z,95160.59
2018-10-07T04:23:13.636Z,95160.31
2018-10-07T04:25:48.383Z,95154.13
2018-10-07T04:28:23.075Z,95159.58
2018-10-07T04:30:57.984Z,95159.66
2018-10-07T04:33:32.438Z,95165.10
2018-10-07T04:36:08.764Z,95166.20
2018-10-07T04:38:43.298Z,95174.82
2018-10-07T04:41:17.776Z,95174.90
2018-10-07T04:43:52.501Z,95177.73
2018-10-07T04:46:26.832Z,95181.88
2018-10-07T04:49:04.674Z,95185.80
2018-10-07T04:51:39.472Z,95192.27
2018-10-07T04:54:14.452Z,95194.06
2018-10-07T04:56:48.957Z,95198.28
2018-10-07T04:59:23.578Z,95191.34
2018-10-07T05:02:00.680Z,95193.38
2018-10-07T05:04:38.219Z,95197.19
2018-10-07T05:07:16.471Z,95195.27
2018-10-07T05:10:23.066Z,95199.20
2018-10-07T05:13:00.820Z,95202.54
2018-10-07T05:15:35.520Z,95205.23
2018-10-07T05:18:10.220Z,95209.80
2018-10-07T05:20:44.951Z,95210.89
2018-10-07T05:23:20.011Z,95214.31
2018-10-07T05:25:54.832Z,95216.42
2018-10-07T05:28:29.864Z,95218.23
2018-10-07T05:31:04.779Z,95225.29
2018-10-07T05:33:39.323Z,95226.95
2018-10-07T05:36:14.171Z,95235.90
2018-10-07T05:38:48.844Z,95237.13
2018-10-07T05:41:23.976Z,95236.63
2018-10-07T05:43:58.516Z,95236.70
2018-10-07T05:46:33.276Z,95234.95
2018-10-07T05:49:07.795Z,95235.75
2018-10-07T05:51:42.207Z,95238.52
2018-10-07T05:54:16.672Z,95241.34
2018-10-07T05:56:51.428Z,95248.98
2018-10-07T05:59:26.063Z,95253.55
2018-10-07T06:02:03.976Z,95252.03
2018-10-07T06:04:42.201Z,95254.22
2018-10-07T06:07:19.373Z,95248.70
2018-10-07T06:09:54.387Z,95253.74
2018-10-07T06:12:29.166Z,95252.55
2018-10-07T06:15:27.865Z,95257.34
2018-10-07T06:18:02.537Z,95258.22
2018-10-07T06:20:37.444Z,95259.38
2018-10-07T06:23:12.560Z,95264.79
2018-10-07T06:25:46.824Z,95269.88
2018-10-07T06:28:22.044Z,95272.42
2018-10-07T06:30:56.847Z,95272.24
2018-10-07T06:33:31.173Z,95275.80
2018-10-07T06:36:06.235Z,95272.81
2018-10-07T06:38:43.020Z,95276.13
2018-10-07T06:41:18.313Z,95284.19
2018-10-07T06:43:53.452Z,95289.38
2018-10-07T06:46:28.650Z,95288.72
2018-10-07T06:49:03.384Z,95293.73
2018-10-07T06:51:38.184Z,95296.42
2018-10-07T06:54:14.101Z,95306.25
2018-10-07T06:56:49.435Z,95310.64
2018-10-07T06:59:23.977Z,95312.23
2018-10-07T07:01:59.084Z,95315.72
2018-10-07T07:04:33.444Z,95323.81
2018-10-07T07:07:08.868Z,95315.28
2018-10-07T07:09:43.860Z,95324.52
2018-10-07T07:12:18.557Z,95323.00
2018-10-07T07:14:53.599Z,95322.95
2018-10-07T07:17:28.177Z,95322.64
2018-10-07T07:20:02.592Z,95320.40
2018-10-07T07:22:37.177Z,95324.40
2018-10-07T07:25:11.615Z,95336.36
2018-10-07T07:27:46.296Z,95339.11
2018-10-07T07:30:21.486Z,95338.44
2018-10-07T07:35:33.242Z,95351.34
2018-10-07T07:38:07.939Z,95362.27
2018-10-07T07:40:42.464Z,95361.61
2018-10-07T07:43:16.764Z,95362.59
2018-10-07T07:45:51.584Z,95364.76
2018-10-07T07:48:26.035Z,95376.41
2018-10-07T07:51:00.439Z,95377.48
2018-10-07T07:53:37.737Z,95375.47
2018-10-07T07:56:12.634Z,95379.11
2018-10-07T07:58:48.973Z,95383.14
2018-10-07T08:01:23.719Z,95387.85
2018-10-07T08:03:58.358Z,95380.80
2018-10-07T08:06:32.661Z,95386.36
2018-10-07T08:09:08.348Z,95401.40
2018-10-07T08:11:42.867Z,95399.68
2018-10-07T08:14:17.502Z,95404.48
2018-10-07T08:16:51.940Z,95396.92
2018-10-07T08:19:26.373Z,95398.95
2018-10-07T08:22:01.771Z,95391.97
2018-10-07T08:24:36.708Z,95400.00
2018-10-07T08:27:11.405Z,95401.12
2018-10-07T08:29:46.482Z,95397.83
2018-10-07T08:32:21.119Z,95404.16
2018-10-07T08:35:02.321Z,95406.81
2018-10-07T08:37:37.269Z,95408.37
2018-10-07T08:40:11.664Z,95405.51
2018-10-07T08:42:46.258Z,95400.64
2018-10-07T08:45:21.287Z,95404.02
2018-10-07T08:47:55.911Z,95403.55
2018-10-07T08:50:33.166Z,95410.30
2018-10-07T08:53:07.720Z,95411.05
2018-10-07T08:55:42.836Z,95413.14
2018-10-07T08:58:17.245Z,95414.34
2018-10-07T09:00:51.679Z,95410.00
2018-10-07T09:03:26.135Z,95413.73
2018-10-07T09:06:00.423Z,95408.43
2018-10-07T09:08:34.712Z,95413.96
2018-10-07T09:11:09.505Z,95415.88
2018-10-07T09:13:44.116Z,95420.22
2018-10-07T09:16:18.563Z,95418.45
2018-10-07T09:18:53.562Z,95421.27
2018-10-07T09:21:28.261Z,95417.32
2018-10-07T09:24:02.720Z,95426.59
2018-10-07T09:26:37.417Z,95429.60
2018-10-07T09:29:12.030Z,95431.78
2018-10-07T09:31:54.164Z,95432.41
2018-10-07T09:34:33.149Z,95428.48
2018-10-07T09:37:07.760Z,95425.66
2018-10-07T09:39:42.315Z,95421.30
2018-10-07T09:42:17.153Z,95426.45
2018-10-07T09:44:52.524Z,95428.28
2018-10-07T09:47:27.206Z,95433.62
2018-10-07T09:50:03.892Z,95426.09
2018-10-07T09:52:38.603Z,95421.86
2018-10-07T09:55:13.581Z,95421.22
2018-10-07T09:57:48.075Z,95425.09
2018-10-07T10:00:28.191Z,95425.05
2018-10-07T10:03:02.479Z,95427.13
2018-10-07T10:05:37.427Z,95425.32
2018-10-07T10:08:12.111Z,95423.84
2018-10-07T10:10:49.296Z,95423.13
2018-10-07T10:13:29.948Z,95423.70
2018-10-07T10:16:04.987Z,95427.98
2018-10-07T10:18:49.855Z,95430.81
2018-10-07T10:22:35.316Z,95435.03
2018-10-07T10:25:17.516Z,95435.82
2018-10-07T10:28:05.864Z,95433.47
2018-10-07T10:30:49.596Z,95441.00
2018-10-07T10:33:28.360Z,95441.25
2018-10-07T10:36:19.219Z,95450.25
2018-10-07T10:39:08.148Z,95446.44
2018-10-07T10:41:48.564Z,95446.58
2018-10-07T10:44:41.698Z,95449.35
2018-10-07T10:47:25.444Z,95449.64
2018-10-07T10:50:08.423Z,95452.20
2018-10-07T10:52:52.304Z,95453.89
2018-10-07T10:55:36.619Z,95449.51
2018-10-07T10:58:21.815Z,95454.07
2018-10-07T11:01:09.255Z,95453.31
2018-10-07T11:03:51.547Z,95452.58
2018-10-07T11:06:34.700Z,95454.72
2018-10-07T11:09:13.384Z,95461.61
2018-10-07T11:12:00.150Z,95457.89
2018-10-07T11:14:50.535Z,95459.63
2018-10-07T11:17:31.503Z,95457.61
2018-10-07T11:20:18.996Z,95457.48
2018-10-07T11:23:13.231Z,95455.90
2018-10-07T11:25:59.047Z,95453.73
2018-10-07T11:28:59.211Z,95455.02
2018-10-07T11:31:42.767Z,95455.73
2018-10-07T11:36:33.484Z,95455.44
2018-10-07T11:39:22.297Z,95454.27
2018-10-07T11:42:07.308Z,95457.45
2018-10-07T11:46:52.208Z,95457.77
2018-10-07T11:49:31.931Z,95460.08
2018-10-07T11:52:18.434Z,95461.73
2018-10-07T11:54:57.144Z,95459.38
2018-10-07T11:57:32.012Z,95459.27
2018-10-07T12:00:06.571Z,95466.58
2018-10-07T12:02:41.873Z,95461.92
2018-10-07T12:05:16.464Z,95460.89
2018-10-07T12:07:51.215Z,95460.08
2018-10-07T12:10:25.460Z,95455.88
2018-10-07T12:13:00.173Z,95461.47
2018-10-07T12:15:35.974Z,95463.88
2018-10-07T12:18:10.463Z,95466.78
2018-10-07T12:20:45.314Z,95466.72
2018-10-07T12:23:20.085Z,95472.52
2018-10-07T12:25:54.403Z,95469.56
2018-10-07T12:28:28.764Z,95467.94
2018-10-07T12:31:03.742Z,95467.94
2018-10-07T12:33:38.160Z,95471.33
2018-10-07T12:36:14.521Z,95473.11
2018-10-07T12:39:00.929Z,95466.69
2018-10-07T12:41:36.787Z,95473.54
2018-10-07T12:44:11.765Z,95475.91
2018-10-07T12:46:46.392Z,95477.70
2018-10-07T12:52:21.329Z,95481.48
2018-10-07T12:54:56.949Z,95480.63
2018-10-07T12:57:31.688Z,95489.53
2018-10-07T13:00:06.962Z,95490.56
2018-10-07T13:02:42.497Z,95488.17
2018-10-07T13:05:16.923Z,95488.15
2018-10-07T13:07:51.646Z,95486.25
2018-10-07T13:10:26.462Z,95483.85
2018-10-07T13:13:01.122Z,95499.97
2018-10-07T13:15:35.639Z,95493.45
2018-10-07T13:18:10.048Z,95500.04
2018-10-07T13:20:54.891Z,95502.95
2018-10-07T13:23:33.098Z,95502.49
2018-10-07T13:26:08.539Z,95501.72
2018-10-07T13:28:53.468Z,95502.19
2018-10-07T13:31:29.855Z,95503.27
2018-10-07T13:34:04.499Z,95509.59
2018-10-07T13:36:39.622Z,95504.31
2018-10-07T13:39:14.996Z,95506.52
2018-10-07T13:41:49.820Z,95508.55
2018-10-07T13:44:24.289Z,95515.67
2018-10-07T13:46:58.800Z,95517.00
2018-10-07T13:49:33.383Z,95524.67
2018-10-07T13:52:07.696Z,95519.09
2018-10-07T13:54:42.205Z,95516.70
2018-10-07T13:57:18.884Z,95518.05
2018-10-07T13:59:53.643Z,95520.22
2018-10-07T14:02:28.169Z,95526.14
2018-10-07T14:05:03.043Z,95524.34
2018-10-07T14:07:37.447Z,95524.34
2018-10-07T14:10:11.859Z,95526.44
2018-10-07T14:12:46.630Z,95528.14
2018-10-07T14:15:21.450Z,95528.28
2018-10-07T14:17:56.137Z,95529.45
2018-10-07T14:20:40.490Z,95531.12
2018-10-07T14:23:15.097Z,95537.43
2018-10-07T14:25:49.528Z,95530.11
2018-10-07T14:28:24.119Z,95535.08
2018-10-07T14:30:58.657Z,95526.41
2018-10-07T14:33:33.176Z,95527.89
2018-10-07T14:36:08.034Z,95528.00
2018-10-07T14:38:43.011Z,95532.64
2018-10-07T14:41:29.792Z,95533.53
2018-10-07T14:44:04.852Z,95531.51
2018-10-07T14:46:39.752Z,95535.63
2018-10-07T14:49:15.410Z,95532.19
2018-10-07T14:51:55.926Z,95529.12
2018-10-07T14:54:30.504Z,95529.08
2018-10-07T14:57:08.407Z,95528.39
2018-10-07T14:59:54.435Z,95531.91
2018-10-07T15:02:30.216Z,95530.66
2018-10-07T15:05:04.943Z,95536.09
2018-10-07T15:07:39.971Z,95536.00
2018-10-07T15:10:14.360Z,95541.59
2018-10-07T15:12:48.775Z,95537.65
2018-10-07T15:15:25.380Z,95537.20
2018-10-07T15:18:00.187Z,95542.40
2018-10-07T15:20:34.527Z,95545.79
2018-10-07T15:23:09.153Z,95547.39
2018-10-07T15:25:44.355Z,95555.86
2018-10-07T15:28:19.675Z,95557.69
2018-10-07T15:30:54.188Z,95558.48
2018-10-07T15:33:28.846Z,95562.16
2018-10-07T15:36:03.813Z,95565.59
2018-10-07T15:38:38.341Z,95562.67
2018-10-07T15:41:13.252Z,95563.72
2018-10-07T15:43:47.776Z,95553.41
2018-10-07T15:46:22.336Z,95555.25
2018-10-07T15:48:56.950Z,95553.71
2018-10-07T15:51:31.888Z,95566.27
2018-10-07T15:54:06.999Z,95563.02
2018-10-07T15:56:42.277Z,95563.46
2018-10-07T15:59:17.092Z,95568.40
2018-10-07T16:01:51.897Z,95570.94
2018-10-07T16:04:26.575Z,95575.27
2018-10-07T16:07:01.028Z,95578.37
2018-10-07T16:09:35.648Z,95577.23
2018-10-07T16:12:09.997Z,95577.36
2018-10-07T16:14:44.546Z,95584.61
2018-10-07T16:17:23.355Z,95582.62
2018-10-07T16:19:57.968Z,95591.98
2018-10-07T16:22:32.847Z,95596.84
2018-10-07T16:25:07.164Z,95601.14
2018-10-07T16:27:41.797Z,95608.61
2018-10-07T16:30:16.228Z,95609.72
2018-10-07T16:32:50.700Z,95610.32
2018-10-07T16:35:26.432Z,95623.52
2018-10-07T16:38:02.402Z,95618.40
2018-10-07T16:40:37.453Z,95625.87
2018-10-07T16:43:13.068Z,95627.20
2018-10-07T16:45:47.574Z,95632.22
2018-10-07T16:48:21.953Z,95632.86
2018-10-07T16:50:56.462Z,95643.76
2018-10-07T16:53:31.109Z,95642.54
2018-10-07T16:56:05.995Z,95641.58
2018-10-07T16:58:40.299Z,95641.37
2018-10-07T17:01:21.060Z,95645.83
2018-10-07T17:03:59.039Z,95644.31
2018-10-07T17:06:33.774Z,95650.18
2018-10-07T17:09:08.955Z,95653.08
2018-10-07T17:11:43.368Z,95652.36
2018-10-07T17:14:20.041Z,95659.19
2018-10-07T17:16:54.580Z,95661.48
2018-10-07T17:19:29.801Z,95665.42
2018-10-07T17:22:04.570Z,95664.29
2018-10-07T17:24:38.860Z,95664.65
2018-10-07T17:27:14.613Z,95660.45
2018-10-07T17:29:49.628Z,95659.92
2018-10-07T17:32:24.040Z,95664.80
2018-10-07T17:34:58.580Z,95673.72
2018-10-07T17:37:33.235Z,95672.67
2018-10-07T17:40:08.080Z,95677.41
2018-10-07T17:42:52.339Z,95671.78
2018-10-07T17:45:26.828Z,95683.44
2018-10-07T17:48:01.738Z,95684.08
2018-10-07T17:50:41.891Z,95688.66
2018-10-07T17:53:16.787Z,95693.44
2018-10-07T17:55:54.503Z,95693.14
2018-10-07T17:58:28.998Z,95697.88
2018-10-07T18:01:03.456Z,95700.75
2018-10-07T18:03:38.074Z,95706.50
2018-10-07T18:06:12.379Z,95705.82
2018-10-07T18:08:47.163Z,95704.63
2018-10-07T18:11:21.792Z,95708.95
2018-10-07T18:13:56.301Z,95708.27
2018-10-07T18:16:30.604Z,95714.63
2018-10-07T18:19:05.196Z,95719.66
2018-10-07T18:21:39.699Z,95725.02
2018-10-07T18:24:15.032Z,95716.59
2018-10-07T18:26:49.607Z,95728.95
2018-10-07T18:29:23.983Z,95725.95
2018-10-07T18:31:58.300Z,95724.13
2018-10-07T18:34:32.966Z,95722.23
2018-10-07T18:37:08.156Z,95731.67
2018-10-07T18:39:43.123Z,95732.97
2018-10-07T18:42:17.971Z,95737.81
2018-10-07T18:44:52.384Z,95734.09
2018-10-07T18:47:26.663Z,95733.48
2018-10-07T18:50:01.177Z,95738.13
2018-10-07T18:52:36.004Z,95739.64
2018-10-07T18:55:10.847Z,95747.56
2018-10-07T18:57:45.954Z,95748.87
2018-10-07T19:00:20.298Z,95746.74
2018-10-07T19:02:56.399Z,95754.59
2018-10-07T19:05:30.965Z,95756.81
2018-10-07T19:08:05.459Z,95765.56
2018-10-07T19:10:40.169Z,95767.78
2018-10-07T19:13:14.700Z,95769.36
2018-10-07T19:15:49.104Z,95766.14
2018-10-07T19:18:23.425Z,95766.44
2018-10-07T19:20:57.820Z,95773.38
2018-10-07T19:23:32.412Z,95770.33
2018-10-07T19:26:13.232Z,95768.86
2018-10-07T19:29:01.729Z,95770.46
2018-10-07T19:31:36.512Z,95771.14
2018-10-07T19:34:11.056Z,95769.05
2018-10-07T19:36:47.887Z,95773.68
2018-10-07T19:39:22.832Z,95774.39
2018-10-07T19:41:57.160Z,95767.31
2018-10-07T19:44:32.016Z,95769.22
2018-10-07T19:47:06.573Z,95766.30
2018-10-07T19:49:41.160Z,95767.27
2018-10-07T19:52:15.978Z,95772.70
2018-10-07T19:54:50.560Z,95769.28
2018-10-07T19:57:25.228Z,95774.20
2018-10-07T19:59:59.712Z,95775.31
2018-10-07T20:02:33.968Z,95772.90
2018-10-07T20:05:08.411Z,95773.95
2018-10-07T20:07:44.137Z,95785.59
2018-10-07T20:10:18.899Z,95789.36
2018-10-07T20:12:53.461Z,95787.34
2018-10-07T20:15:28.256Z,95795.56
2018-10-07T20:18:03.675Z,95799.48
2018-10-07T20:20:38.420Z,95795.73
2018-10-07T20:23:16.571Z,95797.29
2018-10-07T20:25:51.272Z,95799.19
2018-10-07T20:28:26.002Z,95803.63
2018-10-07T20:31:00.751Z,95806.63
2018-10-07T20:33:36.406Z,95806.46
2018-10-07T20:36:10.855Z,95813.55
2018-10-07T20:38:47.515Z,95821.39
2018-10-07T20:41:22.119Z,95830.85
2018-10-07T20:43:56.484Z,95828.52
2018-10-07T20:46:30.871Z,95830.89
2018-10-07T20:49:06.276Z,95827.83
2018-10-07T20:51:40.932Z,95823.11
2018-10-07T20:54:15.612Z,95826.91
2018-10-07T20:56:50.311Z,95827.29
2018-10-07T20:59:24.798Z,95831.47
2018-10-07T21:01:59.265Z,95830.70
2018-10-07T21:04:33.793Z,95838.22
2018-10-07T21:07:08.475Z,95830.47
2018-10-07T21:09:43.016Z,95836.98
2018-10-07T21:12:17.416Z,95827.94
2018-10-07T21:14:51.687Z,95822.22
2018-10-07T21:17:26.348Z,95823.14
2018-10-07T21:20:00.826Z,95829.90
2018-10-07T21:22:35.473Z,95835.88
2018-10-07T21:25:09.932Z,95838.44
2018-10-07T21:27:44.643Z,95838.09
2018-10-07T21:30:19.466Z,95847.41
2018-10-07T21:32:54.327Z,95838.10
2018-10-07T21:35:28.728Z,95840.41
2018-10-07T21:38:03.447Z,95849.22
2018-10-07T21:40:37.920Z,95853.77
2018-10-07T21:43:12.272Z,95857.96
2018-10-07T21:45:46.825Z,95860.89
2018-10-07T21:48:21.155Z,95864.42
2018-10-07T21:50:55.854Z,95861.75
2018-10-07T21:53:30.449Z,95860.33
2018-10-07T21:56:05.269Z,95862.31
2018-10-07T21:58:40.380Z,95864.42
2018-10-07T22:01:15.144Z,95867.88
2018-10-07T22:03:49.623Z,95867.75
2018-10-07T22:06:24.135Z,95868.08
2018-10-07T22:08:59.184Z,95865.05
2018-10-07T22:11:33.966Z,95862.58
2018-10-07T22:14:09.126Z,95862.61
2018-10-07T22:16:43.543Z,95855.97
2018-10-07T22:19:18.540Z,95854.22
2018-10-07T22:21:53.324Z,95852.17
2018-10-07T22:24:27.815Z,95858.94
2018-10-07T22:27:02.572Z,95855.40
2018-10-07T22:29:37.751Z,95854.47
2018-10-07T22:32:12.155Z,95857.26
2018-10-07T22:34:46.573Z,95861.91
2018-10-07T22:37:21.503Z,95860.56
2018-10-07T22:39:55.912Z,95871.92
2018-10-07T22:42:30.502Z,95873.47
2018-10-07T22:45:05.173Z,95871.67
2018-10-07T22:47:39.628Z,95875.16
2018-10-07T22:50:14.207Z,95875.84
2018-10-07T22:52:48.703Z,95875.77
2018-10-07T22:55:23.240Z,95875.39
2018-10-07T22:57:57.767Z,95874.97
2018-10-07T23:00:33.274Z,95878.13
2018-10-07T23:03:08.051Z,95870.45
2018-10-07T23:05:42.701Z,95872.55
2018-10-07T23:08:17.162Z,95868.95
2018-10-07T23:10:51.988Z,95871.17
2018-10-07T23:13:26.652Z,95874.30
2018-10-07T23:16:01.624Z,95879.38
2018-10-07T23:18:36.232Z,95883.65
2018-10-07T23:21:10.776Z,95882.61
2018-10-07T23:23:45.373Z,95876.91
2018-10-07T23:26:20.140Z,95876.38
2018-10-07T23:28:54.926Z,95878.35
2018-10-07T23:31:29.373Z,95879.72
2018-10-07T23:34:04.743Z,95881.92
2018-10-07T23:36:39.021Z,95877.62
2018-10-07T23:39:13.464Z,95882.27
2018-10-07T23:41:47.960Z,95882.36
2018-10-07T23:44:22.480Z,95875.16
2018-10-07T23:46:56.871Z,95885.03
2018-10-07T23:49:31.544Z,95881.25
2018-10-07T23:52:06.096Z,95880.56
2018-10-07T23:54:41.244Z,95874.49
2018-10-07T23:57:16.564Z,95868.66
2018-10-07T23:59:51.503Z,95866.19
